Terminal Aerodrome Forecast
Issued by NWS

Home | Current Version | Previous Version | Text Only | Print | Product List | Glossary On
Versions: 1 2 3 4 5 6 7 8 9 10 11 12 13 14 15 16 17 18 19 20
000
FTUS44 KMAF 042300 RRA
TAFFST
TAF
KFST 042348Z 0500/0524 05015G25KT 4SM -RA BR BKN006 OVC015
      TEMPO 0500/0503 2SM -TSRA BR OVC008CB
     FM050300 03015G25KT 3SM -FZRA BR OVC008
     FM050500 04012G18KT 2SM -SN BR OVC006
     FM051200 35008KT P6SM BKN015
     FM051600 03008KT P6SM SCT015
     FM051800 07006KT P6SM SKC=

USA.gov is the U.S. government's official web portal to all federal, state and local government web resources and services.